sensor_id;sensor_type;location;lat;lon;timestamp;P1;durP1;ratioP1;P2;durP2;ratioP2
19782;SDS011;10051;40.294;-3.754;2022-11-02T14:00:05;2.33;;;1.10;;
19782;SDS011;10051;40.294;-3.754;2022-11-02T14:05:27;2.22;;;1.20;;
19782;SDS011;10051;40.294;-3.754;2022-11-02T14:07:59;3.03;;;1.05;;
19782;SDS011;10051;40.294;-3.754;2022-11-02T14:10:33;1.45;;;0.90;;
19782;SDS011;10051;40.294;-3.754;2022-11-02T14:13:04;2.33;;;1.20;;
19782;SDS011;10051;40.294;-3.754;2022-11-02T14:18:36;4.00;;;1.23;;
19782;SDS011;10051;40.294;-3.754;2022-11-02T14:26:58;3.10;;;1.20;;
19782;SDS011;10051;40.294;-3.754;2022-11-02T14:29:36;4.35;;;1.17;;
19782;SDS011;10051;40.294;-3.754;2022-11-02T14:35:02;5.25;;;1.13;;
19782;SDS011;10051;40.294;-3.754;2022-11-02T14:49:19;1.67;;;1.10;;
19782;SDS011;10051;40.294;-3.754;2022-11-02T14:58:15;2.72;;;1.00;;
19782;SDS011;10051;40.294;-3.754;2022-11-02T15:06:23;2.58;;;1.20;;
19782;SDS011;10051;40.294;-3.754;2022-11-02T15:08:55;5.10;;;1.10;;
19782;SDS011;10051;40.294;-3.754;2022-11-02T15:11:43;1.95;;;1.10;;
19782;SDS011;10051;40.294;-3.754;2022-11-02T15:16:58;2.72;;;1.20;;
19782;SDS011;10051;40.294;-3.754;2022-11-02T15:19:38;2.42;;;1.30;;
19782;SDS011;10051;40.294;-3.754;2022-11-02T15:24:59;2.92;;;1.20;;
19782;SDS011;10051;40.294;-3.754;2022-11-02T15:27:44;3.20;;;1.40;;
19782;SDS011;10051;40.294;-3.754;2022-11-02T15:30:16;6.53;;;2.00;;
19782;SDS011;10051;40.294;-3.754;2022-11-02T15:33:10;5.10;;;1.70;;
19782;SDS011;10051;40.294;-3.754;2022-11-02T15:35:43;2.40;;;1.40;;
19782;SDS011;10051;40.294;-3.754;2022-11-02T15:38:12;2.08;;;1.30;;
19782;SDS011;10051;40.294;-3.754;2022-11-02T15:43:52;2.05;;;1.10;;
19782;SDS011;10051;40.294;-3.754;2022-11-02T15:47:12;3.33;;;1.30;;
19782;SDS011;10051;40.294;-3.754;2022-11-02T15:52:43;4.20;;;1.10;;
19782;SDS011;10051;40.294;-3.754;2022-11-02T15:58:15;2.55;;;1.00;;
19782;SDS011;10051;40.294;-3.754;2022-11-02T16:03:45;2.67;;;1.10;;
19782;SDS011;10051;40.294;-3.754;2022-11-02T16:06:26;2.55;;;1.15;;
19782;SDS011;10051;40.294;-3.754;2022-11-02T16:08:58;2.95;;;1.00;;
19782;SDS011;10051;40.294;-3.754;2022-11-02T16:11:27;1.95;;;1.20;;
19782;SDS011;10051;40.294;-3.754;2022-11-02T16:16:47;1.55;;;1.10;;
19782;SDS011;10051;40.294;-3.754;2022-11-02T16:19:19;3.67;;;1.10;;
19782;SDS011;10051;40.294;-3.754;2022-11-02T16:21:48;2.10;;;1.10;;
19782;SDS011;10051;40.294;-3.754;2022-11-02T16:24:17;1.98;;;1.02;;
19782;SDS011;10051;40.294;-3.754;2022-11-02T16:26:50;1.95;;;1.10;;
19782;SDS011;10051;40.294;-3.754;2022-11-02T16:29:30;2.47;;;1.00;;
19782;SDS011;10051;40.294;-3.754;2022-11-02T16:32:01;5.28;;;1.20;;
19782;SDS011;10051;40.294;-3.754;2022-11-02T16:34:30;4.95;;;1.02;;
19782;SDS011;10051;40.294;-3.754;2022-11-02T16:37:00;3.95;;;1.02;;
19782;SDS011;10051;40.294;-3.754;2022-11-02T16:39:30;1.95;;;1.08;;
19782;SDS011;10051;40.294;-3.754;2022-11-02T16:42:13;3.65;;;1.30;;
19782;SDS011;10051;40.294;-3.754;2022-11-02T16:44:55;6.00;;;1.15;;
19782;SDS011;10051;40.294;-3.754;2022-11-02T16:47:32;5.07;;;1.30;;
19782;SDS011;10051;40.294;-3.754;2022-11-02T16:50:26;3.50;;;1.15;;
19782;SDS011;10051;40.294;-3.754;2022-11-02T16:55:33;2.92;;;1.08;;
19782;SDS011;10051;40.294;-3.754;2022-11-02T16:58:20;10.35;;;1.25;;
19782;SDS011;10051;40.294;-3.754;2022-11-02T17:01:03;8.48;;;1.50;;
19782;SDS011;10051;40.294;-3.754;2022-11-02T17:03:34;1.80;;;1.30;;
19782;SDS011;10051;40.294;-3.754;2022-11-02T17:06:04;2.90;;;1.20;;
19782;SDS011;10051;40.294;-3.754;2022-11-02T17:08:35;4.85;;;1.55;;
19782;SDS011;10051;40.294;-3.754;2022-11-02T17:11:06;5.03;;;1.60;;
19782;SDS011;10051;40.294;-3.754;2022-11-02T17:14:14;5.32;;;1.40;;
19782;SDS011;10051;40.294;-3.754;2022-11-02T17:16:36;5.85;;;1.40;;
19782;SDS011;10051;40.294;-3.754;2022-11-02T17:22:11;2.47;;;1.02;;
19782;SDS011;10051;40.294;-3.754;2022-11-02T17:27:31;2.05;;;1.00;;
19782;SDS011;10051;40.294;-3.754;2022-11-02T17:29:59;3.72;;;1.10;;
19782;SDS011;10051;40.294;-3.754;2022-11-02T17:32:29;5.13;;;1.10;;
19782;SDS011;10051;40.294;-3.754;2022-11-02T17:34:58;3.92;;;1.10;;
19782;SDS011;10051;40.294;-3.754;2022-11-02T17:37:28;3.15;;;0.95;;
19782;SDS011;10051;40.294;-3.754;2022-11-02T17:40:01;4.28;;;1.05;;
19782;SDS011;10051;40.294;-3.754;2022-11-02T17:42:32;3.03;;;1.00;;
19782;SDS011;10051;40.294;-3.754;2022-11-02T17:45:22;2.65;;;0.95;;
19782;SDS011;10051;40.294;-3.754;2022-11-02T17:47:56;1.73;;;1.00;;
19782;SDS011;10051;40.294;-3.754;2022-11-02T17:50:27;5.28;;;1.10;;
19782;SDS011;10051;40.294;-3.754;2022-11-02T17:52:58;2.92;;;1.00;;
19782;SDS011;10051;40.294;-3.754;2022-11-02T17:55:28;2.40;;;1.13;;
19782;SDS011;10051;40.294;-3.754;2022-11-02T17:57:59;4.35;;;1.25;;
19782;SDS011;10051;40.294;-3.754;2022-11-02T18:03:21;3.53;;;1.10;;
19782;SDS011;10051;40.294;-3.754;2022-11-02T18:08:42;2.75;;;1.30;;
19782;SDS011;10051;40.294;-3.754;2022-11-02T18:14:01;4.95;;;1.60;;
19782;SDS011;10051;40.294;-3.754;2022-11-02T18:16:29;3.47;;;1.20;;
19782;SDS011;10051;40.294;-3.754;2022-11-02T18:18:58;2.53;;;1.30;;
19782;SDS011;10051;40.294;-3.754;2022-11-02T18:21:26;5.85;;;1.30;;
19782;SDS011;10051;40.294;-3.754;2022-11-02T18:23:55;4.57;;;1.30;;
19782;SDS011;10051;40.294;-3.754;2022-11-02T18:26:37;3.88;;;1.50;;
19782;SDS011;10051;40.294;-3.754;2022-11-02T18:29:06;3.50;;;1.70;;
19782;SDS011;10051;40.294;-3.754;2022-11-02T18:31:40;5.18;;;1.40;;
19782;SDS011;10051;40.294;-3.754;2022-11-02T18:34:09;2.67;;;1.48;;
19782;SDS011;10051;40.294;-3.754;2022-11-02T18:36:38;3.30;;;1.45;;
19782;SDS011;10051;40.294;-3.754;2022-11-02T18:39:07;3.85;;;1.83;;
19782;SDS011;10051;40.294;-3.754;2022-11-02T18:41:50;5.30;;;1.80;;
19782;SDS011;10051;40.294;-3.754;2022-11-02T18:44:21;3.50;;;1.70;;
19782;SDS011;10051;40.294;-3.754;2022-11-02T18:46:50;3.05;;;1.50;;
19782;SDS011;10051;40.294;-3.754;2022-11-02T18:49:19;3.38;;;1.52;;
19782;SDS011;10051;40.294;-3.754;2022-11-02T18:51:48;5.20;;;1.65;;
19782;SDS011;10051;40.294;-3.754;2022-11-02T18:54:17;5.57;;;1.98;;
19782;SDS011;10051;40.294;-3.754;2022-11-02T18:56:47;6.60;;;2.20;;
19782;SDS011;10051;40.294;-3.754;2022-11-02T18:59:15;4.47;;;2.00;;
19782;SDS011;10051;40.294;-3.754;2022-11-02T19:01:44;3.95;;;1.90;;
19782;SDS011;10051;40.294;-3.754;2022-11-02T19:04:13;2.47;;;1.60;;
19782;SDS011;10051;40.294;-3.754;2022-11-02T19:06:41;6.65;;;1.65;;
19782;SDS011;10051;40.294;-3.754;2022-11-02T19:09:29;3.97;;;1.90;;
19782;SDS011;10051;40.294;-3.754;2022-11-02T19:15:02;4.78;;;2.08;;
19782;SDS011;10051;40.294;-3.754;2022-11-02T19:17:31;6.05;;;2.10;;
19782;SDS011;10051;40.294;-3.754;2022-11-02T19:20:00;9.02;;;2.15;;
19782;SDS011;10051;40.294;-3.754;2022-11-02T19:22:28;6.97;;;2.30;;
19782;SDS011;10051;40.294;-3.754;2022-11-02T19:31:04;7.88;;;2.22;;
19782;SDS011;10051;40.294;-3.754;2022-11-02T19:33:34;4.63;;;1.60;;
19782;SDS011;10051;40.294;-3.754;2022-11-02T19:36:02;6.15;;;1.98;;
19782;SDS011;10051;40.294;-3.754;2022-11-02T19:38:34;4.57;;;2.08;;
19782;SDS011;10051;40.294;-3.754;2022-11-02T19:41:05;5.32;;;2.00;;
19782;SDS011;10051;40.294;-3.754;2022-11-02T19:43:45;5.05;;;2.03;;
19782;SDS011;10051;40.294;-3.754;2022-11-02T19:46:22;4.60;;;2.00;;
19782;SDS011;10051;40.294;-3.754;2022-11-02T19:48:51;5.20;;;2.10;;
19782;SDS011;10051;40.294;-3.754;2022-11-02T19:51:22;3.58;;;1.90;;
19782;SDS011;10051;40.294;-3.754;2022-11-02T19:53:53;2.85;;;1.63;;
19782;SDS011;10051;40.294;-3.754;2022-11-02T19:59:16;5.53;;;1.85;;
19782;SDS011;10051;40.294;-3.754;2022-11-02T20:01:45;5.75;;;1.70;;
19782;SDS011;10051;40.294;-3.754;2022-11-02T20:04:15;4.03;;;1.70;;
19782;SDS011;10051;40.294;-3.754;2022-11-02T20:06:55;4.05;;;1.70;;
19782;SDS011;10051;40.294;-3.754;2022-11-02T20:09:26;3.95;;;1.52;;
19782;SDS011;10051;40.294;-3.754;2022-11-02T20:15:04;4.05;;;2.08;;
19782;SDS011;10051;40.294;-3.754;2022-11-02T20:17:35;6.75;;;2.38;;
19782;SDS011;10051;40.294;-3.754;2022-11-02T20:20:00;5.00;;;1.95;;
19782;SDS011;10051;40.294;-3.754;2022-11-02T20:22:26;6.13;;;2.50;;
19782;SDS011;10051;40.294;-3.754;2022-11-02T20:24:51;7.70;;;2.85;;
19782;SDS011;10051;40.294;-3.754;2022-11-02T20:27:17;6.72;;;1.90;;
19782;SDS011;10051;40.294;-3.754;2022-11-02T20:29:43;4.40;;;1.83;;
19782;SDS011;10051;40.294;-3.754;2022-11-02T20:32:10;6.78;;;2.38;;
19782;SDS011;10051;40.294;-3.754;2022-11-02T20:34:36;5.30;;;2.40;;
19782;SDS011;10051;40.294;-3.754;2022-11-02T20:37:02;6.15;;;2.50;;
19782;SDS011;10051;40.294;-3.754;2022-11-02T20:39:29;5.75;;;2.28;;
19782;SDS011;10051;40.294;-3.754;2022-11-02T20:41:54;5.45;;;1.80;;
19782;SDS011;10051;40.294;-3.754;2022-11-02T20:44:21;2.42;;;1.85;;
19782;SDS011;10051;40.294;-3.754;2022-11-02T20:46:48;4.00;;;1.85;;
19782;SDS011;10051;40.294;-3.754;2022-11-02T20:49:13;3.38;;;1.60;;
19782;SDS011;10051;40.294;-3.754;2022-11-02T20:51:39;3.00;;;1.67;;
19782;SDS011;10051;40.294;-3.754;2022-11-02T20:54:05;2.58;;;1.55;;
19782;SDS011;10051;40.294;-3.754;2022-11-02T20:56:31;2.67;;;1.50;;
19782;SDS011;10051;40.294;-3.754;2022-11-02T20:58:57;3.63;;;1.67;;
19782;SDS011;10051;40.294;-3.754;2022-11-02T21:01:23;5.28;;;1.60;;
19782;SDS011;10051;40.294;-3.754;2022-11-02T21:03:49;5.53;;;1.60;;
19782;SDS011;10051;40.294;-3.754;2022-11-02T21:06:15;5.55;;;1.60;;
19782;SDS011;10051;40.294;-3.754;2022-11-02T21:08:40;2.60;;;1.50;;
19782;SDS011;10051;40.294;-3.754;2022-11-02T21:11:07;4.32;;;1.50;;
19782;SDS011;10051;40.294;-3.754;2022-11-02T21:13:53;2.80;;;1.63;;
19782;SDS011;10051;40.294;-3.754;2022-11-02T21:16:21;3.55;;;1.90;;
19782;SDS011;10051;40.294;-3.754;2022-11-02T21:24:39;5.93;;;2.13;;
19782;SDS011;10051;40.294;-3.754;2022-11-02T21:27:08;5.20;;;2.53;;
19782;SDS011;10051;40.294;-3.754;2022-11-02T21:29:33;4.25;;;2.33;;
19782;SDS011;10051;40.294;-3.754;2022-11-02T21:31:59;9.40;;;2.38;;
19782;SDS011;10051;40.294;-3.754;2022-11-02T21:34:24;4.47;;;2.33;;
19782;SDS011;10051;40.294;-3.754;2022-11-02T21:36:50;6.07;;;2.50;;
19782;SDS011;10051;40.294;-3.754;2022-11-02T21:39:15;4.72;;;2.38;;
19782;SDS011;10051;40.294;-3.754;2022-11-02T21:41:41;3.90;;;2.10;;
19782;SDS011;10051;40.294;-3.754;2022-11-02T21:44:06;5.40;;;2.30;;
19782;SDS011;10051;40.294;-3.754;2022-11-02T21:46:33;4.60;;;2.30;;
19782;SDS011;10051;40.294;-3.754;2022-11-02T21:48:59;4.60;;;2.13;;
19782;SDS011;10051;40.294;-3.754;2022-11-02T21:51:25;4.80;;;2.38;;
19782;SDS011;10051;40.294;-3.754;2022-11-02T21:53:50;4.32;;;2.40;;
19782;SDS011;10051;40.294;-3.754;2022-11-02T21:56:17;5.40;;;2.33;;
19782;SDS011;10051;40.294;-3.754;2022-11-02T21:58:45;5.38;;;1.92;;
19782;SDS011;10051;40.294;-3.754;2022-11-02T22:04:03;3.85;;;2.17;;
19782;SDS011;10051;40.294;-3.754;2022-11-02T22:06:29;4.93;;;2.50;;
19782;SDS011;10051;40.294;-3.754;2022-11-02T22:08:55;3.95;;;2.30;;
19782;SDS011;10051;40.294;-3.754;2022-11-02T22:11:21;4.95;;;2.20;;
19782;SDS011;10051;40.294;-3.754;2022-11-02T22:13:51;5.68;;;2.45;;
19782;SDS011;10051;40.294;-3.754;2022-11-02T22:16:18;4.53;;;2.40;;
19782;SDS011;10051;40.294;-3.754;2022-11-02T22:19:11;6.60;;;2.97;;
19782;SDS011;10051;40.294;-3.754;2022-11-02T22:21:42;7.07;;;3.03;;
19782;SDS011;10051;40.294;-3.754;2022-11-02T22:24:09;6.97;;;2.60;;
19782;SDS011;10051;40.294;-3.754;2022-11-02T22:26:35;6.00;;;2.33;;
19782;SDS011;10051;40.294;-3.754;2022-11-02T22:29:02;6.30;;;2.25;;
19782;SDS011;10051;40.294;-3.754;2022-11-02T22:31:32;6.57;;;2.17;;
19782;SDS011;10051;40.294;-3.754;2022-11-02T22:34:00;5.60;;;2.30;;
19782;SDS011;10051;40.294;-3.754;2022-11-02T22:36:29;4.60;;;2.40;;
19782;SDS011;10051;40.294;-3.754;2022-11-02T22:38:56;5.10;;;2.38;;
19782;SDS011;10051;40.294;-3.754;2022-11-02T22:43:50;6.95;;;2.53;;
19782;SDS011;10051;40.294;-3.754;2022-11-02T22:46:17;5.82;;;2.75;;
19782;SDS011;10051;40.294;-3.754;2022-11-02T22:48:43;5.88;;;2.28;;
19782;SDS011;10051;40.294;-3.754;2022-11-02T22:51:08;4.78;;;2.65;;
19782;SDS011;10051;40.294;-3.754;2022-11-02T22:53:34;6.40;;;2.60;;
19782;SDS011;10051;40.294;-3.754;2022-11-02T22:58:39;5.53;;;2.60;;
19782;SDS011;10051;40.294;-3.754;2022-11-02T23:01:06;5.75;;;2.50;;
19782;SDS011;10051;40.294;-3.754;2022-11-02T23:03:34;9.00;;;3.00;;
19782;SDS011;10051;40.294;-3.754;2022-11-02T23:06:01;4.75;;;2.58;;
19782;SDS011;10051;40.294;-3.754;2022-11-02T23:08:30;7.38;;;3.40;;
19782;SDS011;10051;40.294;-3.754;2022-11-02T23:10:59;7.85;;;3.58;;
19782;SDS011;10051;40.294;-3.754;2022-11-02T23:13:43;6.78;;;3.33;;
19782;SDS011;10051;40.294;-3.754;2022-11-02T23:16:11;9.45;;;3.60;;
19782;SDS011;10051;40.294;-3.754;2022-11-02T23:24:58;9.73;;;3.78;;
19782;SDS011;10051;40.294;-3.754;2022-11-02T23:28:02;7.65;;;3.55;;
19782;SDS011;10051;40.294;-3.754;2022-11-02T23:30:46;9.50;;;3.72;;
19782;SDS011;10051;40.294;-3.754;2022-11-02T23:33:30;7.50;;;3.70;;
19782;SDS011;10051;40.294;-3.754;2022-11-02T23:36:03;6.97;;;3.80;;
19782;SDS011;10051;40.294;-3.754;2022-11-02T23:38:35;8.85;;;3.58;;
19782;SDS011;10051;40.294;-3.754;2022-11-02T23:41:19;8.10;;;3.47;;
19782;SDS011;10051;40.294;-3.754;2022-11-02T23:43:45;13.90;;;4.00;;
19782;SDS011;10051;40.294;-3.754;2022-11-02T23:46:12;9.80;;;3.78;;
19782;SDS011;10051;40.294;-3.754;2022-11-02T23:48:39;6.97;;;3.35;;
19782;SDS011;10051;40.294;-3.754;2022-11-02T23:51:05;15.90;;;4.28;;
19782;SDS011;10051;40.294;-3.754;2022-11-02T23:53:50;14.27;;;4.60;;
19782;SDS011;10051;40.294;-3.754;2022-11-02T23:56:34;11.10;;;4.00;;
19782;SDS011;10051;40.294;-3.754;2022-11-02T23:59:09;10.13;;;3.90;;
